Time;durP1;ratioP1;P1;durP2;ratioP2;P2;SDS_P1;SDS_P2;PMS_P1;PMS_P2;Temp;Humidity;BMP_temperature;BMP_pressure;BME280_temperature;BME280_humidity;BME280_pressure;Samples;Min_cycle;Max_cycle;Signal;HPM_P1;HPM_P2
2024/01/19 00:02:08;;;;;;;73.23;36.27;;;-0.50;99.90;;;;;;5124826;28;20964;-60
2024/01/19 00:04:35;;;;;;;65.33;33.50;;;-0.50;99.90;;;;;;5125548;28;20499;-60
2024/01/19 00:07:03;;;;;;;73.83;35.53;;;-0.50;99.90;;;;;;5126837;28;20513;-60
2024/01/19 00:09:31;;;;;;;73.63;34.13;;;-0.50;99.90;;;;;;5125433;27;20458;-60
2024/01/19 00:11:59;;;;;;;62.63;32.60;;;-0.60;99.90;;;;;;5124141;28;20460;-60
2024/01/19 00:14:28;;;;;;;63.43;33.70;;;-0.60;99.90;;;;;;5122892;27;20486;-59
2024/01/19 00:16:55;;;;;;;52.00;28.87;;;-0.60;1.00;;;;;;5122241;28;20459;-60
2024/01/19 00:19:22;;;;;;;48.50;28.47;;;-0.50;1.00;;;;;;5122502;28;20486;-60
2024/01/19 00:21:50;;;;;;;54.67;29.20;;;-0.60;1.00;;;;;;5122694;28;20461;-59
2024/01/19 00:24:17;;;;;;;43.47;25.67;;;-0.70;99.90;;;;;;5123205;28;20462;-60
2024/01/19 00:26:47;;;;;;;53.20;28.13;;;-0.60;99.90;;;;;;5122502;28;20521;-60
2024/01/19 00:29:16;;;;;;;44.07;27.73;;;-0.60;99.90;;;;;;5122469;28;20508;-59
2024/01/19 00:31:45;;;;;;;45.83;26.83;;;-0.60;1.00;;;;;;5122444;28;20488;-59
2024/01/19 00:34:12;;;;;;;57.77;28.03;;;-0.60;1.00;;;;;;5120411;28;20463;-59
2024/01/19 00:36:40;;;;;;;41.10;24.50;;;-0.70;1.00;;;;;;5121904;28;20487;-59
2024/01/19 00:39:07;;;;;;;44.47;25.27;;;-0.70;1.00;;;;;;5120973;28;20534;-60
2024/01/19 00:41:35;;;;;;;41.07;26.03;;;-0.80;12.90;;;;;;5121000;28;20827;-60
2024/01/19 00:44:03;;;;;;;43.67;24.90;;;-0.80;1.00;;;;;;5121036;28;20851;-59
2024/01/19 00:46:31;;;;;;;46.53;24.90;;;-0.80;99.90;;;;;;5120601;28;20467;-60
2024/01/19 00:48:58;;;;;;;47.00;26.83;;;-0.90;49.70;;;;;;5121309;28;20455;-60
2024/01/19 00:51:26;;;;;;;40.33;23.73;;;-0.90;1.00;;;;;;5119998;28;20914;-60
2024/01/19 00:53:53;;;;;;;40.20;24.57;;;-0.90;1.00;;;;;;5120211;28;20463;-59
2024/01/19 00:56:20;;;;;;;41.23;25.00;;;-0.90;1.00;;;;;;5120398;28;20666;-60
2024/01/19 00:58:48;;;;;;;40.17;24.73;;;-0.90;1.00;;;;;;5120121;28;20560;-60
2024/01/19 01:01:15;;;;;;;38.20;23.60;;;-1.00;1.00;;;;;;5120176;28;20461;-60
2024/01/19 01:03:44;;;;;;;40.07;21.90;;;-1.00;99.90;;;;;;5120400;28;20549;-60
2024/01/19 01:06:11;;;;;;;42.27;24.33;;;-1.10;99.90;;;;;;5120234;28;20463;-59
2024/01/19 01:08:38;;;;;;;37.33;22.97;;;-1.10;99.90;;;;;;5119980;28;20513;-59
2024/01/19 01:11:06;;;;;;;38.57;22.37;;;-1.10;99.90;;;;;;5120282;28;20809;-60
2024/01/19 01:13:33;;;;;;;32.20;21.70;;;-1.10;99.90;;;;;;5119782;28;20772;-59
2024/01/19 01:16:02;;;;;;;34.07;21.20;;;-1.20;99.90;;;;;;5119211;28;20462;-60
2024/01/19 01:18:29;;;;;;;35.43;23.67;;;-1.20;99.90;;;;;;5119429;28;20467;-60
2024/01/19 01:20:58;;;;;;;34.53;20.97;;;-1.20;99.90;;;;;;5119391;28;20510;-59
2024/01/19 01:23:25;;;;;;;27.83;20.67;;;-1.20;99.90;;;;;;5119094;28;20455;-59
2024/01/19 01:25:53;;;;;;;34.40;22.00;;;-1.20;99.90;;;;;;5119089;28;20430;-60
2024/01/19 01:28:20;;;;;;;28.03;19.60;;;-1.30;99.90;;;;;;5118791;28;20455;-60
2024/01/19 01:30:47;;;;;;;27.90;19.83;;;-1.30;99.90;;;;;;5118793;28;20484;-60
2024/01/19 01:33:14;;;;;;;26.90;20.17;;;-1.30;60.20;;;;;;5118960;28;20499;-60
2024/01/19 01:35:42;;;;;;;31.67;20.63;;;-1.40;1.00;;;;;;5119080;28;20487;-60
2024/01/19 01:38:10;;;;;;;26.60;19.50;;;-1.40;85.60;;;;;;5118206;28;20489;-60
2024/01/19 01:40:38;;;;;;;28.93;20.07;;;-1.40;1.00;;;;;;5118375;28;20784;-60
2024/01/19 01:43:06;;;;;;;28.20;19.97;;;-1.40;1.00;;;;;;5118490;28;20463;-60
2024/01/19 01:45:34;;;;;;;28.07;19.90;;;-1.50;1.00;;;;;;5118134;28;20495;-60
2024/01/19 01:48:01;;;;;;;34.30;18.90;;;-1.60;99.90;;;;;;5117961;28;20857;-61
2024/01/19 01:50:29;;;;;;;26.13;20.27;;;-1.60;99.90;;;;;;5118382;28;20936;-60
2024/01/19 01:52:57;;;;;;;26.10;20.37;;;-1.60;99.90;;;;;;5118289;28;20472;-60
2024/01/19 01:55:26;;;;;;;25.13;19.67;;;-1.60;99.90;;;;;;5117966;28;20436;-61
2024/01/19 01:57:53;;;;;;;25.37;19.73;;;-1.60;99.90;;;;;;5117697;28;20546;-61
2024/01/19 02:00:21;;;;;;;27.47;19.70;;;-1.70;99.90;;;;;;5117465;28;20490;-61
2024/01/19 02:02:49;;;;;;;24.37;19.37;;;-1.70;99.90;;;;;;5117707;28;20462;-61
2024/01/19 02:05:16;;;;;;;25.83;19.63;;;-1.80;99.90;;;;;;5118106;28;20457;-61
2024/01/19 02:07:44;;;;;;;24.70;19.20;;;-1.90;99.90;;;;;;5117424;28;20484;-61
2024/01/19 02:10:11;;;;;;;27.27;20.20;;;-1.80;99.90;;;;;;5117465;28;20514;-61
2024/01/19 02:12:40;;;;;;;30.70;20.07;;;-1.90;99.90;;;;;;5117814;28;20496;-61
2024/01/19 02:15:19;;;;;;;25.67;19.97;;;-1.90;99.90;;;;;;5117997;28;20572;-61
2024/01/19 02:17:47;;;;;;;27.40;20.53;;;-1.80;99.90;;;;;;5117959;28;20870;-61
2024/01/19 02:20:14;;;;;;;28.50;20.20;;;-1.80;99.90;;;;;;5117671;28;20781;-61
2024/01/19 02:22:44;;;;;;;23.50;18.30;;;-1.90;99.90;;;;;;5117042;28;20449;-61
2024/01/19 02:25:13;;;;;;;27.57;19.73;;;-1.90;99.90;;;;;;5117537;28;20518;-61
2024/01/19 02:27:41;;;;;;;29.63;19.87;;;-1.90;45.10;;;;;;5117639;28;20489;-61
2024/01/19 02:30:09;;;;;;;28.90;20.17;;;-1.90;53.40;;;;;;5117443;28;20460;-62
2024/01/19 02:32:37;;;;;;;24.40;20.20;;;-2.00;1.00;;;;;;5117099;28;20463;-62
2024/01/19 02:35:04;;;;;;;26.30;19.13;;;-1.90;38.50;;;;;;5117707;28;20469;-62
2024/01/19 02:37:32;;;;;;;26.57;20.33;;;-1.90;15.20;;;;;;5117715;28;20438;-62
2024/01/19 02:40:00;;;;;;;29.50;21.30;;;-1.90;1.00;;;;;;5117167;28;20940;-62
2024/01/19 02:42:30;;;;;;;30.33;22.10;;;-1.90;1.00;;;;;;5117372;28;20481;-61
2024/01/19 02:44:59;;;;;;;33.67;23.80;;;-2.00;1.00;;;;;;5117369;28;20465;-63
2024/01/19 02:47:27;;;;;;;34.03;23.67;;;-2.00;99.90;;;;;;5117463;28;20793;-63
2024/01/19 02:49:54;;;;;;;33.77;22.70;;;-1.90;99.90;;;;;;5117262;28;20451;-63
2024/01/19 02:52:22;;;;;;;32.30;23.13;;;-1.90;99.90;;;;;;5116788;28;20462;-63
2024/01/19 02:54:49;;;;;;;33.90;23.60;;;-1.90;99.90;;;;;;5117311;28;20469;-63
2024/01/19 02:57:16;;;;;;;35.93;22.97;;;-1.80;99.90;;;;;;5117547;28;20752;-63
2024/01/19 02:59:45;;;;;;;38.23;23.10;;;-1.90;99.90;;;;;;5120901;28;20489;-63
2024/01/19 03:02:12;;;;;;;33.60;23.80;;;-1.90;99.90;;;;;;5120914;28;20464;-64
2024/01/19 03:04:40;;;;;;;35.00;24.20;;;-1.90;1.00;;;;;;5121024;28;20500;-64
2024/01/19 03:07:07;;;;;;;37.93;25.57;;;-1.90;1.00;;;;;;5121158;28;20464;-64
2024/01/19 03:09:34;;;;;;;37.13;24.93;;;-1.80;1.00;;;;;;5120769;28;20486;-64
2024/01/19 03:12:02;;;;;;;35.40;23.47;;;-1.80;99.90;;;;;;5120897;28;20820;-63
2024/01/19 03:14:29;;;;;;;37.03;23.53;;;-1.80;99.90;;;;;;5120776;28;20457;-63
2024/01/19 03:16:58;;;;;;;37.10;23.83;;;-1.80;99.90;;;;;;5120881;28;20458;-62
2024/01/19 03:19:25;;;;;;;38.77;23.43;;;-1.80;99.90;;;;;;5120408;28;20811;-64
2024/01/19 03:21:53;;;;;;;40.50;25.70;;;-1.80;99.90;;;;;;5120421;28;20462;-64
2024/01/19 03:24:20;;;;;;;35.63;25.03;;;-1.70;1.00;;;;;;5120900;28;20974;-64
2024/01/19 03:26:48;;;;;;;34.00;23.00;;;-1.70;1.00;;;;;;5120776;28;20462;-64
2024/01/19 03:29:15;;;;;;;34.20;23.30;;;-1.70;1.00;;;;;;5120316;28;20459;-64
2024/01/19 03:31:43;;;;;;;34.57;23.43;;;-1.60;1.00;;;;;;5120793;28;20850;-64
2024/01/19 03:34:11;;;;;;;37.10;24.87;;;-1.60;1.00;;;;;;5120727;28;20485;-64
2024/01/19 03:36:39;;;;;;;41.90;25.27;;;-1.60;1.00;;;;;;5120383;28;20463;-64
2024/01/19 03:39:06;;;;;;;40.47;24.80;;;-1.60;1.00;;;;;;5120347;28;20554;-64
2024/01/19 03:41:33;;;;;;;41.20;24.03;;;-1.60;19.10;;;;;;5120560;28;20457;-64
2024/01/19 03:44:01;;;;;;;35.27;23.47;;;-1.50;99.90;;;;;;5120007;28;20545;-64
2024/01/19 03:46:28;;;;;;;41.40;24.77;;;-1.50;99.90;;;;;;5120488;27;20451;-64
2024/01/19 03:48:55;;;;;;;41.17;23.93;;;-1.50;99.90;;;;;;5120506;28;20911;-64
2024/01/19 03:51:24;;;;;;;41.30;24.00;;;-1.50;1.00;;;;;;5120318;28;20459;-64
2024/01/19 03:53:51;;;;;;;38.30;23.73;;;-1.50;1.00;;;;;;5119672;28;20463;-64
2024/01/19 03:56:18;;;;;;;40.57;22.57;;;-1.50;81.90;;;;;;5119905;28;20465;-64
2024/01/19 03:58:45;;;;;;;39.30;23.10;;;-1.50;95.50;;;;;;5120090;28;20459;-65
2024/01/19 04:01:15;;;;;;;42.60;23.87;;;-1.50;99.90;;;;;;5120061;28;20489;-65
2024/01/19 04:03:44;;;;;;;43.63;24.87;;;-1.40;1.00;;;;;;5120163;28;20456;-65
2024/01/19 04:06:12;;;;;;;49.60;26.00;;;-1.40;1.00;;;;;;5119712;28;20594;-65
2024/01/19 04:08:40;;;;;;;44.00;24.77;;;-1.40;1.00;;;;;;5119003;28;20493;-65
2024/01/19 04:11:07;;;;;;;45.47;25.40;;;-1.40;99.90;;;;;;5120025;28;20540;-65
2024/01/19 04:13:35;;;;;;;41.70;24.10;;;-1.40;99.90;;;;;;5120297;28;20507;-65
2024/01/19 04:16:02;;;;;;;46.83;26.37;;;-1.40;1.00;;;;;;5119686;28;20761;-64
2024/01/19 04:18:29;;;;;;;46.20;24.87;;;-1.40;99.90;;;;;;5119540;28;20455;-64
2024/01/19 04:20:57;;;;;;;47.67;26.53;;;-1.30;1.00;;;;;;5119580;28;20491;-65
2024/01/19 04:23:24;;;;;;;52.63;26.87;;;-1.30;99.90;;;;;;5119710;28;20457;-64
2024/01/19 04:25:53;;;;;;;53.97;27.77;;;-1.30;99.90;;;;;;5119708;28;20460;-65
2024/01/19 04:28:20;;;;;;;48.10;26.00;;;-1.40;1.00;;;;;;5119664;28;20561;-65
2024/01/19 04:30:47;;;;;;;46.03;24.77;;;-1.30;99.90;;;;;;5119637;28;20484;-65
2024/01/19 04:33:15;;;;;;;47.73;24.63;;;-1.30;99.90;;;;;;5119471;28;20466;-65
2024/01/19 04:35:42;;;;;;;39.80;23.73;;;-1.30;99.90;;;;;;5119520;28;20545;-65
2024/01/19 04:38:09;;;;;;;37.87;22.53;;;-1.40;1.00;;;;;;5118950;28;20457;-65
2024/01/19 04:40:36;;;;;;;41.20;23.50;;;-1.40;1.00;;;;;;5118938;28;20635;-65
2024/01/19 04:43:05;;;;;;;45.80;24.00;;;-1.40;2.60;;;;;;5119128;28;20497;-65
2024/01/19 04:45:33;;;;;;;43.20;24.83;;;-1.40;36.30;;;;;;5119255;28;20460;-65
2024/01/19 04:48:00;;;;;;;42.50;24.67;;;-1.40;93.70;;;;;;5118996;28;20465;-64
2024/01/19 04:50:27;;;;;;;40.17;22.07;;;-1.40;99.90;;;;;;5118945;28;20458;-65
2024/01/19 04:52:54;;;;;;;38.33;21.00;;;-1.40;99.90;;;;;;5119082;28;20883;-65
2024/01/19 04:55:21;;;;;;;40.17;24.43;;;-1.40;99.90;;;;;;5118928;28;20598;-65
2024/01/19 04:57:48;;;;;;;45.97;23.47;;;-1.40;99.90;;;;;;5118993;28;20749;-65
2024/01/19 05:00:18;;;;;;;42.27;23.33;;;-1.40;99.90;;;;;;5118695;28;20843;-65
2024/01/19 05:02:46;;;;;;;43.10;24.77;;;-1.30;99.90;;;;;;5118711;28;20460;-65
2024/01/19 05:05:13;;;;;;;46.40;25.03;;;-1.40;99.90;;;;;;5118937;28;20552;-65
2024/01/19 05:07:40;;;;;;;38.90;24.33;;;-1.30;99.90;;;;;;5119195;28;20458;-65
2024/01/19 05:10:08;;;;;;;44.53;22.97;;;-1.20;99.90;;;;;;5118354;28;20965;-65
2024/01/19 05:12:36;;;;;;;43.17;24.43;;;-1.20;99.90;;;;;;5118637;28;20547;-65
2024/01/19 05:15:03;;;;;;;46.00;24.93;;;-1.20;99.90;;;;;;5118724;28;20942;-64
2024/01/19 05:17:33;;;;;;;44.00;24.07;;;-1.20;99.90;;;;;;5118157;28;20556;-64
2024/01/19 05:20:00;;;;;;;46.93;26.67;;;-1.20;99.90;;;;;;5117713;28;20495;-64
2024/01/19 05:22:28;;;;;;;47.80;24.70;;;-1.20;99.90;;;;;;5118334;28;20550;-65
2024/01/19 05:24:55;;;;;;;53.43;26.27;;;-1.30;99.90;;;;;;5118550;28;20935;-65
2024/01/19 05:27:22;;;;;;;44.57;25.70;;;-1.20;99.90;;;;;;5118503;28;20517;-64
2024/01/19 05:29:49;;;;;;;49.20;25.23;;;-1.20;99.90;;;;;;5117940;28;20460;-64
2024/01/19 05:32:17;;;;;;;46.50;24.30;;;-1.30;99.90;;;;;;5118094;28;20458;-65
2024/01/19 05:34:45;;;;;;;49.97;25.83;;;-1.20;99.90;;;;;;5118200;28;20457;-64
2024/01/19 05:37:12;;;;;;;46.60;22.03;;;-1.20;99.90;;;;;;5113592;28;20576;-64
2024/01/19 05:39:40;;;;;;;47.73;25.50;;;-1.20;99.90;;;;;;5126502;27;20543;-64
2024/01/19 05:42:07;;;;;;;46.13;25.03;;;-1.20;99.90;;;;;;5138097;27;20486;-64
2024/01/19 05:44:34;;;;;;;50.10;26.77;;;-1.30;99.90;;;;;;5138350;27;20523;-64
2024/01/19 05:47:01;;;;;;;53.87;27.17;;;-1.20;99.90;;;;;;5137977;27;20458;-64
2024/01/19 05:49:28;;;;;;;47.00;26.90;;;-1.20;99.90;;;;;;5137974;27;20458;-64
2024/01/19 05:51:57;;;;;;;48.53;25.60;;;-1.10;99.90;;;;;;5137839;27;20456;-64
2024/01/19 05:54:24;;;;;;;55.60;26.00;;;-1.10;99.90;;;;;;5137875;27;20580;-64
2024/01/19 05:56:52;;;;;;;44.53;22.87;;;-1.10;99.90;;;;;;5138394;27;20879;-60
2024/01/19 05:59:19;;;;;;;49.37;25.37;;;-1.10;99.90;;;;;;5138230;27;20744;-62
2024/01/19 06:01:46;;;;;;;46.80;24.27;;;-1.10;99.90;;;;;;5137963;27;20524;-63
2024/01/19 06:04:13;;;;;;;50.03;25.43;;;-1.00;99.90;;;;;;5137966;27;20817;-63
2024/01/19 06:06:41;;;;;;;46.00;25.30;;;-1.00;99.90;;;;;;5137782;27;20491;-63
2024/01/19 06:09:10;;;;;;;43.67;23.07;;;-1.00;99.90;;;;;;5134174;27;20511;-63
2024/01/19 06:11:37;;;;;;;45.50;25.53;;;-1.00;99.90;;;;;;5113250;28;20490;-64
2024/01/19 06:14:05;;;;;;;49.57;24.30;;;-1.00;99.90;;;;;;5116998;28;20878;-63
2024/01/19 06:16:32;;;;;;;67.77;34.07;;;-0.90;99.90;;;;;;5117127;28;20493;-63
2024/01/19 06:18:59;;;;;;;56.90;30.23;;;-0.90;99.90;;;;;;5116564;28;20465;-62
2024/01/19 06:21:27;;;;;;;48.10;25.60;;;-0.90;99.90;;;;;;5116929;28;20527;-63
2024/01/19 06:23:54;;;;;;;48.53;25.57;;;-0.80;99.90;;;;;;5116972;28;20540;-64
2024/01/19 06:26:23;;;;;;;55.73;28.77;;;-0.80;99.90;;;;;;5115958;28;20785;-63
2024/01/19 06:28:50;;;;;;;56.57;25.93;;;-0.90;99.90;;;;;;5116190;28;20554;-62
2024/01/19 06:31:17;;;;;;;75.67;37.03;;;-0.80;99.90;;;;;;5114940;28;20523;-60
2024/01/19 06:33:46;;;;;;;52.47;27.13;;;-0.90;99.90;;;;;;5118544;28;20488;-63
2024/01/19 06:36:13;;;;;;;56.63;28.67;;;-0.90;99.90;;;;;;5120582;28;20468;-64
2024/01/19 06:38:40;;;;;;;63.20;34.70;;;-0.90;99.90;;;;;;5120032;28;20461;-63
2024/01/19 06:41:07;;;;;;;58.03;27.93;;;-0.90;99.90;;;;;;5120579;28;20578;-64
2024/01/19 06:43:36;;;;;;;45.57;25.50;;;-0.90;99.90;;;;;;5121352;28;20464;-63
2024/01/19 06:46:05;;;;;;;59.33;29.53;;;-0.90;99.90;;;;;;5120562;28;20457;-64
2024/01/19 06:48:32;;;;;;;57.57;29.90;;;-0.90;99.90;;;;;;5120748;28;20455;-63
2024/01/19 06:50:59;;;;;;;55.43;28.27;;;-0.90;99.90;;;;;;5120380;28;20455;-63
2024/01/19 06:53:26;;;;;;;59.67;30.33;;;-0.90;99.90;;;;;;5121151;28;20458;-64
2024/01/19 06:55:54;;;;;;;54.60;26.47;;;-0.80;99.90;;;;;;5120829;27;20516;-64
2024/01/19 06:58:21;;;;;;;49.70;26.93;;;-0.80;99.90;;;;;;5120966;28;20542;-64
2024/01/19 07:00:50;;;;;;;54.13;29.73;;;-0.90;99.90;;;;;;5121120;28;20566;-64
2024/01/19 07:03:17;;;;;;;57.33;29.70;;;-0.80;99.90;;;;;;5120308;28;20458;-63
2024/01/19 07:05:44;;;;;;;51.90;28.67;;;-0.90;99.90;;;;;;5119176;28;20495;-63
2024/01/19 07:08:13;;;;;;;48.73;28.13;;;-0.80;99.90;;;;;;5118284;28;20911;-63
2024/01/19 07:10:40;;;;;;;51.57;25.83;;;-0.80;99.90;;;;;;5119362;28;20433;-63
2024/01/19 07:13:07;;;;;;;50.27;27.73;;;-0.80;99.90;;;;;;5119043;28;20523;-62
2024/01/19 07:15:35;;;;;;;50.77;27.73;;;-0.90;99.90;;;;;;5119063;28;20931;-64
2024/01/19 07:18:05;;;;;;;50.90;28.57;;;-0.80;99.90;;;;;;5119044;28;20549;-64
2024/01/19 07:20:32;;;;;;;54.70;27.80;;;-0.80;99.90;;;;;;5118724;28;20459;-63
2024/01/19 07:23:01;;;;;;;54.70;29.87;;;-0.80;99.90;;;;;;5119807;28;20461;-63
2024/01/19 07:25:28;;;;;;;45.67;28.30;;;-0.80;99.90;;;;;;5119951;28;20491;-61
2024/01/19 07:27:56;;;;;;;50.87;28.60;;;-0.70;99.90;;;;;;5119916;28;20457;-63
2024/01/19 07:30:23;;;;;;;45.10;28.03;;;-0.80;99.90;;;;;;5119479;28;20524;-64
2024/01/19 07:32:50;;;;;;;51.23;28.40;;;-0.80;99.90;;;;;;5120790;28;20463;-64
2024/01/19 07:35:20;;;;;;;47.70;27.20;;;-0.80;99.90;;;;;;5119954;28;20460;-64
2024/01/19 07:37:47;;;;;;;45.53;27.10;;;-0.70;99.90;;;;;;5119956;28;20432;-64
2024/01/19 07:40:14;;;;;;;47.67;27.30;;;-0.80;99.90;;;;;;5120537;28;20435;-64
2024/01/19 07:42:42;;;;;;;47.77;28.40;;;-0.80;99.90;;;;;;5120362;28;20890;-64
2024/01/19 07:45:09;;;;;;;47.23;29.13;;;-0.80;99.90;;;;;;5119361;28;20456;-64
2024/01/19 07:47:37;;;;;;;50.80;26.53;;;-0.80;99.90;;;;;;5120420;28;20890;-64
2024/01/19 07:50:05;;;;;;;48.37;29.60;;;-0.80;99.90;;;;;;5119235;28;20501;-64
2024/01/19 07:52:34;;;;;;;49.93;29.10;;;-0.80;99.90;;;;;;5120175;28;20879;-64
2024/01/19 07:55:01;;;;;;;49.00;29.97;;;-0.70;99.90;;;;;;5119980;28;20437;-63
2024/01/19 07:57:29;;;;;;;49.50;30.27;;;-0.60;99.90;;;;;;5120064;28;20881;-63
2024/01/19 07:59:57;;;;;;;48.37;29.53;;;-0.60;99.90;;;;;;5119124;27;20458;-64
2024/01/19 08:02:24;;;;;;;49.47;28.97;;;-0.70;99.90;;;;;;5119243;28;20909;-64
2024/01/19 08:04:51;;;;;;;52.30;30.93;;;-0.70;99.90;;;;;;5122848;27;20856;-64
2024/01/19 08:07:19;;;;;;;50.50;30.37;;;-0.60;99.90;;;;;;5140326;27;20458;-64
2024/01/19 08:09:48;;;;;;;48.73;28.57;;;-0.70;99.90;;;;;;5138640;27;20455;-63
2024/01/19 08:12:16;;;;;;;54.17;31.30;;;-0.70;99.90;;;;;;5139693;27;20457;-64
2024/01/19 08:14:43;;;;;;;53.50;30.17;;;-0.60;99.90;;;;;;5140243;27;20541;-64
2024/01/19 08:17:11;;;;;;;53.63;33.23;;;-0.60;99.90;;;;;;5140187;27;20928;-64
2024/01/19 08:19:38;;;;;;;50.47;29.67;;;-0.70;99.90;;;;;;5140149;27;20751;-63
2024/01/19 08:22:06;;;;;;;46.83;29.93;;;-0.70;99.90;;;;;;5140169;27;20543;-63
2024/01/19 08:24:37;;;;;;;52.80;30.13;;;-0.70;99.90;;;;;;5139825;27;20462;-64
2024/01/19 08:27:06;;;;;;;50.77;31.37;;;-0.60;99.90;;;;;;5140253;27;20520;-63
2024/01/19 08:29:33;;;;;;;52.37;30.30;;;-0.60;99.90;;;;;;5139702;27;20510;-64
2024/01/19 08:32:01;;;;;;;44.13;27.00;;;-0.60;99.90;;;;;;5139768;27;20761;-64
2024/01/19 08:34:28;;;;;;;46.30;28.63;;;-0.60;99.90;;;;;;5138473;27;20567;-63
2024/01/19 08:36:56;;;;;;;46.37;29.27;;;-0.60;99.90;;;;;;5116494;28;20453;-62
2024/01/19 08:39:23;;;;;;;45.33;27.90;;;-0.50;99.90;;;;;;5125117;27;20498;-62
2024/01/19 08:41:50;;;;;;;41.30;27.80;;;-0.50;99.90;;;;;;5124858;27;20494;-63
2024/01/19 08:44:19;;;;;;;50.60;29.30;;;-0.50;99.90;;;;;;5117373;28;20466;-62
2024/01/19 08:46:47;;;;;;;49.90;30.07;;;-0.50;99.90;;;;;;5117421;28;20943;-63
2024/01/19 08:49:15;;;;;;;43.83;28.37;;;-0.50;99.90;;;;;;5117125;28;20440;-60
2024/01/19 08:51:43;;;;;;;44.87;29.60;;;-0.60;99.90;;;;;;5116641;28;20941;-63
2024/01/19 08:54:11;;;;;;;42.93;27.93;;;-0.50;99.90;;;;;;5117620;28;20462;-64
2024/01/19 08:56:38;;;;;;;44.50;27.47;;;-0.50;99.90;;;;;;5118415;28;20467;-63
2024/01/19 08:59:06;;;;;;;43.47;28.70;;;-0.50;99.90;;;;;;5120445;27;20801;-63
2024/01/19 09:01:35;;;;;;;43.80;26.97;;;-0.40;99.90;;;;;;5139039;27;20486;-64
2024/01/19 09:04:03;;;;;;;44.60;29.03;;;-0.40;99.90;;;;;;5138269;27;20462;-64
2024/01/19 12:04:58;;;;;;;37.37;25.03;;;0.00;99.90;;;;;;5106969;28;20383;-59
2024/01/19 12:07:26;;;;;;;37.87;23.00;;;0.10;99.90;;;;;;5116454;28;20473;-59
2024/01/19 12:10:06;;;;;;;33.57;21.47;;;0.00;99.90;;;;;;5114645;28;20479;-59
2024/01/19 12:12:34;;;;;;;35.60;22.57;;;-0.10;99.90;;;;;;5115659;28;20451;-58
2024/01/19 12:15:02;;;;;;;31.20;22.37;;;-0.20;99.90;;;;;;5115067;28;20889;-60
2024/01/19 12:17:30;;;;;;;34.00;23.17;;;-0.30;99.90;;;;;;5116789;28;20495;-60
2024/01/19 12:19:59;;;;;;;36.97;22.93;;;-0.20;99.90;;;;;;5118704;27;20878;-61
2024/01/19 12:22:27;;;;;;;35.83;21.70;;;-0.20;99.90;;;;;;5118655;28;20489;-59
2024/01/19 12:25:13;;;;;;;33.30;21.47;;;-0.20;99.90;;;;;;5115841;28;20896;-61
2024/01/19 12:27:40;;;;;;;33.37;21.23;;;-0.10;99.90;;;;;;5113903;28;20866;-60
2024/01/19 12:30:13;;;;;;;29.37;20.03;;;0.00;99.90;;;;;;5116090;28;20444;-60
2024/01/19 12:32:41;;;;;;;33.60;19.63;;;0.00;99.90;;;;;;5118703;28;20450;-61
2024/01/19 12:35:11;;;;;;;33.33;22.90;;;0.00;99.90;;;;;;5119278;28;20465;-63
2024/01/19 12:37:39;;;;;;;38.77;23.17;;;0.00;99.90;;;;;;5119380;27;20462;-62
2024/01/19 12:40:13;;;;;;;39.53;23.40;;;-0.10;99.90;;;;;;5119339;28;20851;-62
2024/01/19 12:42:42;;;;;;;38.77;24.90;;;0.10;99.90;;;;;;5118913;28;20491;-62
2024/01/19 12:45:11;;;;;;;35.47;22.43;;;0.20;99.90;;;;;;5119245;28;20476;-62
2024/01/19 12:47:42;;;;;;;34.47;22.53;;;0.00;99.90;;;;;;5117602;28;20452;-62
2024/01/19 12:50:12;;;;;;;30.77;20.70;;;0.00;99.90;;;;;;5118554;28;20509;-62
2024/01/19 12:52:40;;;;;;;33.60;22.00;;;-0.10;99.90;;;;;;5118748;28;20464;-62
2024/01/19 12:55:11;;;;;;;39.57;23.87;;;0.00;99.90;;;;;;5118044;28;20457;-61
2024/01/19 12:57:40;;;;;;;40.50;24.87;;;0.00;99.90;;;;;;5117719;28;20903;-62
2024/01/19 13:00:10;;;;;;;43.10;24.97;;;-0.10;99.90;;;;;;5116876;28;20463;-62
2024/01/19 13:02:38;;;;;;;36.53;24.80;;;-0.10;99.90;;;;;;5117527;28;20673;-59
2024/01/19 13:05:06;;;;;;;37.70;23.10;;;-0.10;99.90;;;;;;5115320;28;20817;-62
2024/01/19 13:07:35;;;;;;;35.03;22.67;;;-0.10;99.90;;;;;;5100032;28;20476;-62
2024/01/19 13:10:05;;;;;;;33.00;22.07;;;0.00;99.90;;;;;;5114562;28;20483;-61
2024/01/19 13:12:33;;;;;;;35.00;21.53;;;0.00;99.90;;;;;;5114885;28;20452;-61
2024/01/19 13:15:05;;;;;;;34.80;21.77;;;-0.10;99.90;;;;;;5116205;28;20454;-62
2024/01/19 13:17:34;;;;;;;33.37;20.17;;;-0.10;99.90;;;;;;5115149;28;20434;-61
2024/01/19 13:20:04;;;;;;;33.30;22.10;;;-0.10;99.90;;;;;;5116445;28;20971;-60
2024/01/19 13:22:32;;;;;;;30.83;21.10;;;0.00;99.90;;;;;;5118302;28;20937;-63
2024/01/19 13:25:01;;;;;;;31.10;19.30;;;0.00;99.90;;;;;;5118550;28;20463;-62
2024/01/19 13:27:29;;;;;;;34.23;22.53;;;0.00;99.90;;;;;;5118613;28;20459;-62
2024/01/19 13:29:56;;;;;;;39.37;23.87;;;0.10;99.90;;;;;;5118146;28;20466;-62
2024/01/19 13:32:24;;;;;;;31.50;18.73;;;0.10;99.90;;;;;;5118261;28;20449;-62
2024/01/19 13:34:51;;;;;;;35.70;20.20;;;0.10;99.90;;;;;;5118397;28;20483;-62
2024/01/19 13:37:19;;;;;;;29.10;17.93;;;0.00;99.90;;;;;;5117937;28;20464;-62
2024/01/19 13:39:52;;;;;;;32.50;20.40;;;0.00;99.90;;;;;;5117643;28;20482;-62
2024/01/19 13:42:23;;;;;;;31.33;19.60;;;0.00;99.90;;;;;;5117213;28;20567;-62
2024/01/19 13:44:51;;;;;;;34.00;19.53;;;0.10;99.90;;;;;;5118295;28;20463;-62
2024/01/19 13:47:18;;;;;;;32.60;19.93;;;0.00;99.90;;;;;;5118359;28;20463;-62
2024/01/19 13:49:46;;;;;;;36.57;20.90;;;0.00;99.90;;;;;;5118025;28;20456;-62
2024/01/19 13:52:14;;;;;;;28.60;19.20;;;0.00;99.90;;;;;;5116143;28;20485;-62
2024/01/19 13:54:41;;;;;;;32.10;17.73;;;0.00;99.90;;;;;;5117522;28;20817;-62
2024/01/19 13:57:09;;;;;;;33.90;18.43;;;0.00;99.90;;;;;;5117323;28;20463;-61
2024/01/19 13:59:38;;;;;;;32.00;19.63;;;0.00;99.90;;;;;;5117631;28;20889;-62
2024/01/19 14:02:07;;;;;;;36.73;21.10;;;0.00;99.90;;;;;;5117044;28;20526;-62
2024/01/19 14:04:35;;;;;;;38.73;20.10;;;0.00;99.90;;;;;;5114660;28;20455;-62
2024/01/19 14:07:04;;;;;;;28.97;17.30;;;0.00;99.90;;;;;;5117483;28;20448;-62
2024/01/19 14:09:32;;;;;;;31.37;18.47;;;0.00;99.90;;;;;;5117199;28;20904;-62
2024/01/19 14:12:00;;;;;;;28.97;18.37;;;0.00;99.90;;;;;;5117776;28;20437;-62
2024/01/19 14:14:30;;;;;;;32.40;18.97;;;0.00;99.90;;;;;;5106689;28;20744;-62
2024/01/19 14:16:59;;;;;;;34.33;21.10;;;0.00;99.90;;;;;;5097291;28;20463;-61
2024/01/19 14:19:26;;;;;;;37.03;20.97;;;0.00;99.90;;;;;;5097265;28;20471;-61
2024/01/19 14:21:54;;;;;;;30.33;19.30;;;0.10;99.90;;;;;;5105245;28;20868;-62
2024/01/19 14:24:21;;;;;;;31.20;19.57;;;0.00;99.90;;;;;;5116542;28;20430;-61
2024/01/19 14:26:49;;;;;;;33.87;20.50;;;0.00;99.90;;;;;;5117008;28;20450;-62
2024/01/19 14:29:17;;;;;;;30.60;20.20;;;0.10;99.90;;;;;;5117839;28;20451;-61
2024/01/19 14:31:45;;;;;;;31.90;19.50;;;0.10;99.90;;;;;;5117246;28;20459;-62
2024/01/19 14:34:16;;;;;;;33.87;21.77;;;0.20;99.90;;;;;;5117232;28;20560;-62
2024/01/19 14:36:46;;;;;;;35.03;20.60;;;0.20;99.90;;;;;;5117090;28;20470;-61
2024/01/19 14:39:14;;;;;;;39.73;21.10;;;0.20;99.90;;;;;;5115637;28;20430;-61
2024/01/19 14:41:41;;;;;;;39.00;23.03;;;0.20;99.90;;;;;;5115804;28;20520;-61
2024/01/19 14:44:09;;;;;;;34.10;19.57;;;0.20;99.90;;;;;;5115534;28;20498;-62
2024/01/19 14:46:37;;;;;;;42.23;24.50;;;0.20;99.90;;;;;;5115504;28;20495;-61
2024/01/19 14:49:05;;;;;;;37.83;22.83;;;0.30;99.90;;;;;;5116127;28;20446;-61
2024/01/19 14:51:34;;;;;;;36.17;23.07;;;0.30;99.90;;;;;;5115694;28;20447;-58
2024/01/19 14:54:02;;;;;;;39.30;25.47;;;0.30;99.90;;;;;;5117644;28;20450;-61
2024/01/19 14:56:30;;;;;;;56.50;31.57;;;0.20;99.90;;;;;;5119138;28;20462;-61
2024/01/19 14:58:58;;;;;;;59.37;31.20;;;0.30;99.90;;;;;;5121142;28;20457;-62
2024/01/19 15:01:25;;;;;;;67.10;37.77;;;0.30;99.90;;;;;;5120312;28;20854;-62
2024/01/19 15:03:53;;;;;;;46.17;27.93;;;0.30;99.90;;;;;;5120306;28;20505;-60
2024/01/19 15:06:20;;;;;;;45.50;26.30;;;0.30;99.90;;;;;;5121125;27;20508;-62
2024/01/19 15:08:49;;;;;;;42.63;26.67;;;0.30;99.90;;;;;;5120810;28;20519;-61
2024/01/19 15:11:17;;;;;;;40.10;25.10;;;0.30;99.90;;;;;;5121464;28;20465;-62
2024/01/19 15:13:45;;;;;;;39.07;25.37;;;0.30;99.90;;;;;;5119785;28;20543;-61
2024/01/19 15:16:13;;;;;;;41.60;23.60;;;0.30;99.90;;;;;;5120722;28;20468;-62
2024/01/19 15:18:40;;;;;;;45.93;26.90;;;0.30;99.90;;;;;;5121066;28;20502;-61
2024/01/19 15:21:08;;;;;;;46.77;28.07;;;0.30;99.90;;;;;;5121318;28;20839;-62
2024/01/19 15:23:38;;;;;;;43.07;26.40;;;0.30;99.90;;;;;;5121046;28;20529;-62
2024/01/19 15:26:07;;;;;;;42.50;27.00;;;0.30;99.90;;;;;;5120568;28;20755;-62
2024/01/19 15:28:34;;;;;;;39.10;25.80;;;0.30;99.90;;;;;;5119943;28;20977;-62
2024/01/19 15:31:02;;;;;;;45.87;29.07;;;0.30;99.90;;;;;;5120494;28;20452;-62
2024/01/19 15:33:30;;;;;;;38.53;25.67;;;0.20;99.90;;;;;;5119766;28;20430;-62